createdAt,value
2019-03-25T00:00:17.487Z,0
2019-03-25T00:01:18.241Z,0
2019-03-25T00:02:18.494Z,0
2019-03-25T00:03:19.248Z,0
2019-03-25T00:04:20.010Z,0
2019-03-25T00:05:21.323Z,0
2019-03-25T00:06:21.074Z,0
2019-03-25T00:07:21.273Z,0
2019-03-25T00:08:22.584Z,0
2019-03-25T00:09:06.825Z,0
2019-03-25T00:10:06.496Z,0
2019-03-25T00:11:06.974Z,0
2019-03-25T00:12:07.449Z,0
2019-03-25T00:13:07.926Z,0
2019-03-25T00:14:08.403Z,0
2019-03-25T00:15:08.878Z,0
2019-03-25T00:16:09.917Z,0
2019-03-25T00:17:10.675Z,0
2019-03-25T00:18:10.986Z,0
2019-03-25T00:19:12.303Z,0
2019-03-25T00:20:12.810Z,0
2019-03-25T00:21:13.287Z,0
2019-03-25T00:22:14.322Z,0
2019-03-25T00:23:14.358Z,0
2019-03-25T00:24:15.722Z,0
2019-03-25T00:25:16.195Z,0
2019-03-25T00:26:16.964Z,0
2019-03-25T00:27:17.163Z,0
2019-03-25T00:28:17.638Z,0
2019-03-25T00:29:18.391Z,0
2019-03-25T00:30:19.084Z,0
2019-03-25T00:31:19.284Z,0
2019-03-25T00:32:20.317Z,0
2019-03-25T00:33:21.351Z,0
2019-03-25T00:34:22.104Z,0
2019-03-25T00:35:22.857Z,0
2019-03-25T00:36:23.350Z,0
2019-03-25T00:37:24.662Z,0
2019-03-25T00:38:25.975Z,0
2019-03-25T00:39:26.452Z,0
2019-03-25T00:40:26.806Z,0
2019-03-25T00:41:27.560Z,0
2019-03-25T00:42:27.596Z,0
2019-03-25T00:43:28.081Z,0
2019-03-25T00:44:28.561Z,0
2019-03-25T00:45:29.594Z,0
2019-03-25T00:46:30.348Z,0
2019-03-25T00:47:31.100Z,0
2019-03-25T00:48:31.856Z,0
2019-03-25T00:49:32.607Z,0
2019-03-25T00:50:32.832Z,0
2019-03-25T00:51:33.623Z,0
2019-03-25T00:52:34.713Z,0
2019-03-25T00:53:35.474Z,0
2019-03-25T00:54:35.970Z,0
2019-03-25T00:55:36.726Z,0
2019-03-25T00:56:37.513Z,0
2019-03-25T00:57:37.990Z,0
2019-03-25T00:58:38.464Z,0
2019-03-25T00:59:38.660Z,0
2019-03-25T01:00:39.633Z,0
2019-03-25T01:01:40.111Z,0
2019-03-25T01:02:40.591Z,0
2019-03-25T01:03:41.348Z,0
2019-03-25T01:04:41.551Z,0
2019-03-25T01:05:42.031Z,0
2019-03-25T01:06:42.506Z,0
2019-03-25T01:07:44.377Z,0
2019-03-25T01:08:43.590Z,0
2019-03-25T01:09:44.067Z,0
2019-03-25T01:10:44.425Z,0
2019-03-25T01:11:50.986Z,0
2019-03-25T01:11:54.744Z,0
2019-03-25T01:12:55.952Z,0
2019-03-25T01:13:56.711Z,0
2019-03-25T01:14:58.016Z,0
2019-03-25T01:15:58.217Z,0
2019-03-25T01:16:58.970Z,0
2019-03-25T01:17:59.722Z,0
2019-03-25T01:19:00.475Z,0
2019-03-25T01:20:01.310Z,0
2019-03-25T01:21:01.350Z,0
2019-03-25T01:22:02.715Z,0
2019-03-25T01:23:02.908Z,0
2019-03-25T01:24:02.666Z,0
2019-03-25T01:25:04.679Z,0
2019-03-25T01:26:05.707Z,0
2019-03-25T01:27:06.468Z,0
2019-03-25T01:28:07.225Z,0
2019-03-25T01:29:07.702Z,0
2019-03-25T01:30:08.762Z,0
2019-03-25T01:31:09.515Z,0
2019-03-25T01:32:10.548Z,0
2019-03-25T01:33:11.586Z,0
2019-03-25T01:34:12.341Z,0
2019-03-25T01:35:12.696Z,0
2019-03-25T01:36:13.455Z,0
2019-03-25T01:37:14.202Z,0
2019-03-25T01:38:14.952Z,0
2019-03-25T01:39:16.279Z,0
2019-03-25T01:40:16.756Z,0
2019-03-25T01:41:18.068Z,0
2019-03-25T01:42:18.103Z,0
2019-03-25T01:43:19.297Z,0
2019-03-25T01:44:20.333Z,0
2019-03-25T01:45:20.815Z,0
2019-03-25T01:46:21.587Z,0
2019-03-25T01:47:21.781Z,0
2019-03-25T01:48:21.979Z,0
2019-03-25T01:49:22.481Z,0
2019-03-25T01:50:22.680Z,0
2019-03-25T01:51:23.436Z,0
2019-03-25T01:52:23.910Z,0
2019-03-25T01:53:24.552Z,0
2019-03-25T01:54:25.907Z,0
2019-03-25T01:55:26.983Z,0
2019-03-25T01:56:27.732Z,0
2019-03-25T01:57:28.484Z,0
2019-03-25T01:58:29.237Z,0
2019-03-25T01:59:29.706Z,0
2019-03-25T02:00:30.460Z,0
2019-03-25T02:01:31.214Z,0
2019-03-25T02:02:31.975Z,0
2019-03-25T02:03:32.956Z,0
2019-03-25T02:04:33.711Z,0
2019-03-25T02:05:34.189Z,0
2019-03-25T02:06:35.780Z,0
2019-03-25T02:07:36.536Z,0
2019-03-25T02:08:36.735Z,0
2019-03-25T02:09:37.538Z,0
2019-03-25T02:10:38.301Z,0
2019-03-25T02:11:39.223Z,0
2019-03-25T02:12:38.995Z,0
2019-03-25T02:13:39.685Z,0
2019-03-25T02:14:40.169Z,0
2019-03-25T02:15:40.235Z,0
2019-03-25T02:16:41.004Z,0
2019-03-25T02:17:41.480Z,0
2019-03-25T02:18:42.234Z,0
2019-03-25T02:19:42.985Z,0
2019-03-25T02:20:43.734Z,0
2019-03-25T02:21:45.041Z,0
2019-03-25T02:22:47.954Z,0
2019-03-25T02:23:47.344Z,0
2019-03-25T02:24:47.539Z,0
2019-03-25T02:25:48.019Z,0
2019-03-25T02:26:48.793Z,0
2019-03-25T02:27:49.270Z,0
2019-03-25T02:28:50.913Z,0
2019-03-25T02:29:51.381Z,0
2019-03-25T02:30:52.968Z,0
2019-03-25T02:31:53.286Z,0
2019-03-25T02:32:54.180Z,0
2019-03-25T02:33:54.817Z,0
2019-03-25T02:34:56.062Z,0
2019-03-25T02:35:57.219Z,0
2019-03-25T02:36:58.376Z,0
2019-03-25T02:37:58.427Z,0
2019-03-25T02:39:00.048Z,0
2019-03-25T02:40:02.069Z,0
2019-03-25T02:41:01.110Z,0
2019-03-25T02:42:02.993Z,0
2019-03-25T02:43:03.991Z,0
2019-03-25T02:44:04.838Z,0
2019-03-25T02:45:06.155Z,0
2019-03-25T02:46:06.510Z,0
2019-03-25T02:47:06.824Z,0
2019-03-25T02:48:07.308Z,0
2019-03-25T02:49:08.913Z,0
2019-03-25T02:50:10.236Z,0
2019-03-25T02:51:10.301Z,0
2019-03-25T02:52:11.653Z,0
2019-03-25T02:53:12.246Z,0
2019-03-25T02:54:12.893Z,0
2019-03-25T02:55:13.792Z,0
2019-03-25T02:56:14.113Z,0
2019-03-25T02:57:15.458Z,0
2019-03-25T02:58:16.392Z,0
2019-03-25T02:59:16.827Z,0
2019-03-25T03:00:18.762Z,0
2019-03-25T03:01:19.070Z,0
2019-03-25T03:02:19.422Z,0
2019-03-25T03:03:20.057Z,0
2019-03-25T03:04:21.095Z,0
2019-03-25T03:05:21.710Z,0
2019-03-25T03:06:22.156Z,0
2019-03-25T03:07:23.039Z,0
2019-03-25T03:08:23.091Z,0
2019-03-25T03:09:23.577Z,0
2019-03-25T03:10:25.814Z,0
2019-03-25T03:11:26.137Z,0
2019-03-25T03:12:27.462Z,0
2019-03-25T03:13:27.523Z,0
2019-03-25T03:14:29.031Z,0
2019-03-25T03:15:29.417Z,0
2019-03-25T03:16:29.912Z,0
2019-03-25T03:17:30.702Z,0
2019-03-25T03:18:31.584Z,0
2019-03-25T03:19:33.045Z,0
2019-03-25T03:20:33.112Z,0
2019-03-25T03:21:33.454Z,0
2019-03-25T03:22:33.772Z,0
2019-03-25T03:23:34.955Z,0
2019-03-25T03:24:18.652Z,0
2019-03-25T03:25:19.352Z,0
2019-03-25T03:26:20.696Z,0
2019-03-25T03:27:20.474Z,0
2019-03-25T03:28:22.634Z,0
2019-03-25T03:29:23.514Z,0
2019-03-25T03:30:24.718Z,0
2019-03-25T03:31:26.425Z,0
2019-03-25T03:32:27.349Z,0
2019-03-25T03:33:27.535Z,0
2019-03-25T03:34:29.224Z,0
2019-03-25T03:35:29.613Z,0
2019-03-25T03:36:30.241Z,0
2019-03-25T03:37:31.084Z,0
2019-03-25T03:38:32.684Z,0
2019-03-25T03:39:33.453Z,0
2019-03-25T03:40:35.066Z,0
2019-03-25T03:41:34.949Z,0
2019-03-25T03:42:35.044Z,0
2019-03-25T03:43:35.529Z,0
2019-03-25T03:44:36.851Z,0
2019-03-25T03:45:38.185Z,0
2019-03-25T03:46:38.722Z,0
2019-03-25T03:47:39.489Z,0
2019-03-25T03:48:41.361Z,0
2019-03-25T03:49:41.684Z,0
2019-03-25T03:50:42.737Z,0
2019-03-25T03:51:43.071Z,0
2019-03-25T03:52:43.844Z,0
2019-03-25T03:53:45.207Z,0
2019-03-25T03:54:45.972Z,0
2019-03-25T03:55:46.484Z,0
2019-03-25T03:56:48.391Z,0
2019-03-25T03:57:48.713Z,0
2019-03-25T03:58:49.585Z,0
2019-03-25T03:59:49.102Z,0
2019-03-25T04:00:50.763Z,0
2019-03-25T04:01:51.757Z,0
2019-03-25T04:02:52.645Z,0
2019-03-25T04:03:53.802Z,0
2019-03-25T04:04:54.976Z,0
2019-03-25T04:05:55.318Z,0
2019-03-25T04:06:56.267Z,0
2019-03-25T04:07:56.619Z,0
2019-03-25T04:08:58.768Z,0
2019-03-25T04:09:59.117Z,0
2019-03-25T04:11:00.007Z,0
2019-03-25T04:12:00.423Z,0
2019-03-25T04:13:01.074Z,0
2019-03-25T04:14:01.674Z,0
2019-03-25T04:15:03.242Z,0
2019-03-25T04:16:04.399Z,0
2019-03-25T04:17:05.267Z,0
2019-03-25T04:18:05.682Z,0
2019-03-25T04:19:06.008Z,0
2019-03-25T04:20:07.919Z,0
2019-03-25T04:21:09.099Z,0
2019-03-25T04:22:09.896Z,0
2019-03-25T04:23:10.268Z,0
2019-03-25T04:24:11.155Z,0
2019-03-25T04:25:11.840Z,0
2019-03-25T04:26:33.204Z,0
2019-03-25T04:27:33.088Z,0
2019-03-25T04:28:34.424Z,0
2019-03-25T04:29:35.313Z,0
2019-03-25T04:30:35.342Z,0
2019-03-25T04:31:35.936Z,0
2019-03-25T04:32:36.257Z,0
2019-03-25T04:33:37.844Z,0
2019-03-25T04:34:37.694Z,0
2019-03-25T04:35:38.474Z,0
2019-03-25T04:36:39.340Z,0
2019-03-25T04:37:39.681Z,0
2019-03-25T04:38:40.730Z,0
2019-03-25T04:39:41.045Z,0
2019-03-25T04:40:41.356Z,0
2019-03-25T04:41:42.723Z,0
2019-03-25T04:42:43.316Z,0
2019-03-25T04:43:44.066Z,0
2019-03-25T04:44:44.550Z,0
2019-03-25T04:45:44.753Z,0
2019-03-25T04:46:45.230Z,0
2019-03-25T04:47:46.761Z,0
2019-03-25T04:48:47.791Z,0
2019-03-25T04:49:48.660Z,0
2019-03-25T04:50:48.412Z,0
2019-03-25T04:51:48.889Z,0
2019-03-25T04:52:49.641Z,0
2019-03-25T04:53:50.398Z,0
2019-03-25T04:54:51.154Z,0
2019-03-25T04:55:51.435Z,0
2019-03-25T04:56:52.191Z,0
2019-03-25T04:57:52.733Z,0
2019-03-25T04:58:53.771Z,0
2019-03-25T04:59:54.524Z,4
2019-03-25T05:00:55.568Z,4
2019-03-25T05:01:56.191Z,0
2019-03-25T05:02:57.226Z,4
2019-03-25T05:03:57.442Z,4
2019-03-25T05:04:57.922Z,4
2019-03-25T05:05:59.797Z,4
2019-03-25T05:07:00.824Z,4
2019-03-25T05:08:00.746Z,8
2019-03-25T05:09:01.222Z,8
2019-03-25T05:10:02.257Z,8
2019-03-25T05:11:05.519Z,8
2019-03-25T05:12:06.553Z,4
2019-03-25T05:13:06.598Z,8
2019-03-25T05:14:07.637Z,4
2019-03-25T05:15:08.688Z,4
2019-03-25T05:16:09.455Z,8
2019-03-25T05:17:10.769Z,12
2019-03-25T05:18:11.566Z,12
2019-03-25T05:19:12.075Z,12
2019-03-25T05:20:12.552Z,8
2019-03-25T05:21:13.594Z,12
2019-03-25T05:22:13.799Z,16
2019-03-25T05:23:14.564Z,16
2019-03-25T05:24:15.043Z,20
2019-03-25T05:25:15.822Z,20
2019-03-25T05:26:16.311Z,20
2019-03-25T05:27:16.844Z,20
2019-03-25T05:28:17.637Z,20
2019-03-25T05:29:18.393Z,24
2019-03-25T05:30:18.866Z,28
2019-03-25T05:31:19.130Z,24
2019-03-25T05:32:20.163Z,24
2019-03-25T05:33:21.212Z,24
2019-03-25T05:34:22.806Z,28
2019-03-25T05:35:22.282Z,32
2019-03-25T05:36:22.760Z,32
2019-03-25T05:37:23.518Z,36
2019-03-25T05:38:23.461Z,44
2019-03-25T05:39:24.219Z,48
2019-03-25T05:40:24.416Z,44
2019-03-25T05:41:24.621Z,44
2019-03-25T05:42:25.944Z,48
2019-03-25T05:43:25.701Z,48
2019-03-25T05:44:26.456Z,60
2019-03-25T05:45:26.932Z,76
2019-03-25T05:46:27.404Z,88
2019-03-25T05:47:28.436Z,108
2019-03-25T05:48:29.764Z,128
2019-03-25T05:49:30.251Z,120
2019-03-25T05:50:31.903Z,132
2019-03-25T05:51:33.260Z,164
2019-03-25T05:52:34.333Z,168
2019-03-25T05:53:34.859Z,160
2019-03-25T05:54:35.340Z,156
2019-03-25T05:55:36.377Z,168
2019-03-25T05:56:37.146Z,196
2019-03-25T05:57:37.634Z,248
2019-03-25T05:58:38.279Z,300
2019-03-25T05:59:39.145Z,344
2019-03-25T06:00:39.457Z,400
2019-03-25T06:01:40.772Z,444
2019-03-25T06:02:41.331Z,484
2019-03-25T06:03:41.817Z,528
2019-03-25T06:04:42.574Z,584
2019-03-25T06:05:42.826Z,620
2019-03-25T06:06:43.583Z,620
2019-03-25T06:07:44.339Z,616
2019-03-25T06:08:44.715Z,576
2019-03-25T06:09:45.193Z,552
2019-03-25T06:10:45.671Z,548
2019-03-25T06:11:45.891Z,556
2019-03-25T06:12:47.205Z,556
2019-03-25T06:13:47.688Z,616
2019-03-25T06:14:47.905Z,676
2019-03-25T06:15:48.661Z,756
2019-03-25T06:16:48.860Z,768
2019-03-25T06:17:49.346Z,724
2019-03-25T06:18:50.282Z,640
2019-03-25T06:19:51.041Z,584
2019-03-25T06:20:51.248Z,572
2019-03-25T06:21:52.002Z,580
2019-03-25T06:22:52.757Z,656
2019-03-25T06:23:53.518Z,672
2019-03-25T06:24:54.554Z,616
2019-03-25T06:25:55.045Z,512
2019-03-25T06:26:55.806Z,428
2019-03-25T06:27:56.844Z,396
2019-03-25T06:28:57.393Z,436
2019-03-25T06:29:57.588Z,492
2019-03-25T06:30:58.354Z,516
2019-03-25T06:31:59.421Z,456
2019-03-25T06:33:03.721Z,348
2019-03-25T06:33:14.270Z,332
2019-03-25T06:34:10.602Z,300
2019-03-25T06:35:11.254Z,316
2019-03-25T06:36:11.732Z,316
2019-03-25T06:37:12.216Z,340
2019-03-25T06:38:13.147Z,452
2019-03-25T06:39:13.978Z,528
2019-03-25T06:40:15.016Z,540
2019-03-25T06:41:15.777Z,452
2019-03-25T06:42:16.252Z,340
2019-03-25T06:43:17.344Z,328
2019-03-25T06:44:17.853Z,340
2019-03-25T06:45:19.607Z,332
2019-03-25T06:46:19.197Z,320
2019-03-25T06:47:20.418Z,348
2019-03-25T06:48:20.742Z,388
2019-03-25T06:49:22.066Z,440
2019-03-25T06:50:22.393Z,516
2019-03-25T06:51:23.733Z,572
2019-03-25T06:52:23.213Z,548
2019-03-25T06:53:24.527Z,472
2019-03-25T06:54:25.109Z,444
2019-03-25T06:55:26.232Z,520
2019-03-25T06:56:27.533Z,592
2019-03-25T06:57:28.139Z,556
2019-03-25T06:58:28.516Z,488
2019-03-25T06:59:29.714Z,468
2019-03-25T07:00:30.850Z,588
2019-03-25T07:01:30.796Z,812
2019-03-25T07:02:31.555Z,1004
2019-03-25T07:03:34.426Z,1288
2019-03-25T07:04:35.795Z,1388
2019-03-25T07:05:36.455Z,1236
2019-03-25T07:06:40.299Z,1272
2019-03-25T07:07:41.101Z,1236
2019-03-25T07:08:43.167Z,872
2019-03-25T07:09:42.921Z,588
2019-03-25T07:10:43.172Z,448
2019-03-25T07:11:43.715Z,448
2019-03-25T07:12:44.475Z,552
2019-03-25T07:13:45.635Z,612
2019-03-25T07:14:47.042Z,588
2019-03-25T07:15:47.397Z,564
2019-03-25T07:16:53.830Z,636
2019-03-25T07:17:03.019Z,652
2019-03-25T07:17:13.412Z,676
2019-03-25T07:17:21.226Z,688
2019-03-25T07:17:33.716Z,704
2019-03-25T07:17:44.499Z,716
2019-03-25T07:17:54.313Z,724
2019-03-25T07:18:05.325Z,732
2019-03-25T07:18:15.164Z,744
2019-03-25T07:18:22.900Z,760
2019-03-25T07:19:21.406Z,836
2019-03-25T07:20:22.328Z,832
2019-03-25T07:21:25.371Z,740
2019-03-25T07:22:24.244Z,680
2019-03-25T07:23:24.780Z,652
2019-03-25T07:24:25.946Z,568
2019-03-25T07:25:25.841Z,484
2019-03-25T07:26:26.360Z,464
2019-03-25T07:27:39.334Z,472
2019-03-25T07:28:40.477Z,456
2019-03-25T07:29:40.985Z,460
2019-03-25T07:30:42.040Z,432
2019-03-25T07:31:43.356Z,428
2019-03-25T07:32:43.838Z,440
2019-03-25T07:33:46.344Z,400
2019-03-25T07:34:46.544Z,356
2019-03-25T07:35:49.358Z,324
2019-03-25T07:36:49.982Z,300
2019-03-25T07:37:51.274Z,284
2019-03-25T07:38:52.307Z,260
2019-03-25T07:39:53.017Z,248
2019-03-25T07:40:53.614Z,252
2019-03-25T07:41:55.677Z,260
2019-03-25T07:42:56.281Z,280
2019-03-25T07:43:03.946Z,280
2019-03-25T07:44:09.348Z,288
2019-03-25T07:44:15.944Z,292
2019-03-25T07:45:17.718Z,288
2019-03-25T07:46:20.553Z,284
2019-03-25T07:47:18.635Z,284
2019-03-25T07:48:21.126Z,284
2019-03-25T07:49:20.756Z,284
2019-03-25T07:50:23.321Z,280
2019-03-25T07:51:26.699Z,280
2019-03-25T07:52:28.076Z,296
2019-03-25T07:53:29.729Z,308
2019-03-25T07:54:30.439Z,340
2019-03-25T07:55:30.018Z,352
2019-03-25T07:56:30.145Z,344
2019-03-25T07:57:31.308Z,344
2019-03-25T07:58:32.291Z,368
2019-03-25T07:59:34.447Z,388
2019-03-25T08:00:36.318Z,384
2019-03-25T08:01:36.746Z,380
2019-03-25T08:02:36.645Z,392
2019-03-25T08:03:38.127Z,408
2019-03-25T08:04:41.815Z,412
2019-03-25T08:05:43.635Z,416
2019-03-25T08:06:42.777Z,428
2019-03-25T08:07:45.208Z,440
2019-03-25T08:08:46.969Z,468
2019-03-25T08:09:47.883Z,516
2019-03-25T08:10:49.308Z,560
2019-03-25T08:11:51.385Z,572
2019-03-25T08:12:51.178Z,580
2019-03-25T08:13:53.691Z,568
2019-03-25T08:14:52.559Z,536
2019-03-25T08:15:53.093Z,484
2019-03-25T08:16:55.024Z,452
2019-03-25T08:17:55.142Z,448
2019-03-25T08:18:57.425Z,452
2019-03-25T08:19:56.691Z,440
2019-03-25T08:20:59.073Z,440
2019-03-25T08:21:59.883Z,492
2019-03-25T08:22:59.792Z,572
2019-03-25T08:24:01.321Z,616
2019-03-25T08:25:01.634Z,596
2019-03-25T08:26:03.443Z,604
2019-03-25T08:27:04.593Z,624
2019-03-25T08:28:04.595Z,604
2019-03-25T08:29:05.123Z,568
2019-03-25T08:30:05.463Z,572
2019-03-25T08:31:06.560Z,576
2019-03-25T08:32:07.665Z,608
2019-03-25T08:33:09.281Z,660
2019-03-25T08:34:09.964Z,712
2019-03-25T08:35:09.390Z,756
2019-03-25T08:36:11.209Z,852
2019-03-25T08:37:12.635Z,928
2019-03-25T08:38:13.026Z,948
2019-03-25T08:39:17.446Z,964
2019-03-25T08:40:15.911Z,1020
2019-03-25T08:41:16.544Z,1096
2019-03-25T08:42:16.677Z,1208
2019-03-25T08:43:17.992Z,1256
2019-03-25T08:44:18.992Z,1304
2019-03-25T08:45:19.443Z,1360
2019-03-25T08:46:19.995Z,1356
2019-03-25T08:47:20.793Z,1268
2019-03-25T08:48:21.362Z,1248
2019-03-25T08:49:20.872Z,1240
2019-03-25T08:50:21.226Z,1148
2019-03-25T08:51:22.087Z,1024
2019-03-25T08:52:23.325Z,980
2019-03-25T08:53:24.160Z,1044
2019-03-25T08:54:24.984Z,1164
2019-03-25T08:55:27.391Z,1240
2019-03-25T08:56:27.005Z,1104
2019-03-25T08:57:27.885Z,940
2019-03-25T08:58:28.198Z,800
2019-03-25T08:59:28.856Z,696
2019-03-25T09:00:29.712Z,668
2019-03-25T09:01:30.017Z,684
2019-03-25T09:02:32.789Z,752
2019-03-25T09:03:33.039Z,804
2019-03-25T09:04:33.978Z,852
2019-03-25T09:05:34.416Z,820
2019-03-25T09:06:35.766Z,716
2019-03-25T09:07:36.588Z,712
2019-03-25T09:08:37.228Z,736
2019-03-25T09:09:37.724Z,768
2019-03-25T09:10:38.289Z,772
2019-03-25T09:11:38.783Z,772
2019-03-25T09:12:39.770Z,788
2019-03-25T09:13:40.412Z,804
2019-03-25T09:14:41.534Z,756
2019-03-25T09:15:41.883Z,720
2019-03-25T09:16:43.143Z,696
2019-03-25T09:17:43.800Z,644
2019-03-25T09:18:44.910Z,620
2019-03-25T09:19:46.135Z,664
2019-03-25T09:20:46.097Z,700
2019-03-25T09:21:46.661Z,696
2019-03-25T09:22:47.852Z,624
2019-03-25T09:23:48.928Z,624
2019-03-25T09:24:49.575Z,616
2019-03-25T09:25:50.133Z,568
2019-03-25T09:26:51.352Z,576
2019-03-25T09:27:51.921Z,712
2019-03-25T09:28:53.107Z,808
2019-03-25T09:29:53.018Z,912
2019-03-25T09:30:54.106Z,876
2019-03-25T09:31:55.008Z,880
2019-03-25T09:32:55.266Z,784
2019-03-25T09:33:56.351Z,668
2019-03-25T09:34:57.196Z,656
2019-03-25T09:35:58.752Z,700
2019-03-25T09:36:58.718Z,752
2019-03-25T09:37:59.563Z,812
2019-03-25T09:39:02.500Z,872
2019-03-25T09:40:01.531Z,1052
2019-03-25T09:41:02.261Z,1120
2019-03-25T09:42:02.886Z,1040
2019-03-25T09:43:04.007Z,896
2019-03-25T09:44:04.195Z,836
2019-03-25T09:45:04.840Z,820
2019-03-25T09:46:05.637Z,756
2019-03-25T09:47:06.428Z,764
2019-03-25T09:48:06.946Z,780
2019-03-25T09:49:07.588Z,744
2019-03-25T09:50:08.712Z,628
2019-03-25T09:51:08.894Z,660
2019-03-25T09:52:10.239Z,900
2019-03-25T09:53:10.446Z,988
2019-03-25T09:54:11.489Z,1004
2019-03-25T09:55:11.975Z,876
2019-03-25T09:56:12.734Z,880
2019-03-25T09:57:14.064Z,928
2019-03-25T09:58:14.848Z,956
2019-03-25T09:59:15.362Z,1040
2019-03-25T10:00:16.469Z,1116
2019-03-25T10:01:16.549Z,1184
2019-03-25T10:02:17.317Z,1180
2019-03-25T10:03:17.400Z,1200
2019-03-25T10:04:21.072Z,1248
2019-03-25T10:05:18.279Z,1584
2019-03-25T10:06:19.105Z,1908
2019-03-25T10:07:19.692Z,1776
2019-03-25T10:08:20.640Z,1460
2019-03-25T10:09:21.072Z,1524
2019-03-25T10:10:21.528Z,1712
2019-03-25T10:11:22.287Z,1732
2019-03-25T10:12:23.351Z,1592
2019-03-25T10:13:23.831Z,1644
2019-03-25T10:14:24.595Z,1740
2019-03-25T10:15:25.669Z,1668
2019-03-25T10:16:26.162Z,1716
2019-03-25T10:17:26.562Z,1796
2019-03-25T10:18:27.045Z,1912
2019-03-25T10:19:27.525Z,2044
2019-03-25T10:20:28.007Z,2052
2019-03-25T10:21:28.348Z,1960
2019-03-25T10:22:29.385Z,1988
2019-03-25T10:23:30.702Z,2072
2019-03-25T10:24:30.515Z,2188
2019-03-25T10:25:31.023Z,2424
2019-03-25T10:26:31.505Z,2716
2019-03-25T10:27:32.080Z,3112
2019-03-25T10:28:32.563Z,3260
2019-03-25T10:29:33.347Z,3264
2019-03-25T10:30:33.901Z,2792
2019-03-25T10:31:34.453Z,2552
2019-03-25T10:32:35.769Z,2712
2019-03-25T10:33:36.246Z,2932
2019-03-25T10:34:37.019Z,3072
2019-03-25T10:35:38.059Z,3092
2019-03-25T10:36:40.108Z,2708
2019-03-25T10:37:40.921Z,3016
2019-03-25T10:38:41.340Z,3244
2019-03-25T10:39:43.468Z,2892
2019-03-25T10:40:43.505Z,2884
2019-03-25T10:41:44.837Z,3024
2019-03-25T10:42:45.048Z,3356
2019-03-25T10:43:45.815Z,3520
2019-03-25T10:44:46.936Z,3744
2019-03-25T10:45:47.691Z,3424
2019-03-25T10:46:49.669Z,3472
2019-03-25T10:47:49.192Z,3352
2019-03-25T10:48:50.504Z,2596
2019-03-25T10:49:50.680Z,2140
2019-03-25T10:50:51.480Z,1936
2019-03-25T10:51:51.680Z,1880
2019-03-25T10:52:52.159Z,1788
2019-03-25T10:53:52.372Z,1748
2019-03-25T10:55:55.090Z,1616
2019-03-25T10:56:55.576Z,1536
2019-03-25T10:57:57.263Z,1440
2019-03-25T10:59:02.351Z,1244
2019-03-25T11:00:07.001Z,1204
2019-03-25T11:00:13.075Z,1208
2019-03-25T11:01:11.157Z,1260
2019-03-25T11:02:11.920Z,1324
2019-03-25T11:03:11.956Z,1420
2019-03-25T11:04:13.001Z,1504
2019-03-25T11:05:18.458Z,1508
2019-03-25T11:06:21.000Z,1584
2019-03-25T11:06:30.494Z,1592
2019-03-25T11:06:50.107Z,1600
2019-03-25T11:06:57.516Z,1600
2019-03-25T11:07:57.134Z,1500
2019-03-25T11:08:56.869Z,1416
2019-03-25T11:09:57.638Z,1364
2019-03-25T11:10:57.845Z,1192
2019-03-25T11:11:59.693Z,1004
2019-03-25T11:13:00.514Z,876
2019-03-25T11:14:01.273Z,860
2019-03-25T11:15:02.384Z,988
2019-03-25T11:16:03.537Z,1400
2019-03-25T11:17:04.045Z,2024
2019-03-25T11:18:07.450Z,2332
2019-03-25T11:19:06.213Z,2056
2019-03-25T11:20:06.972Z,1724
2019-03-25T11:21:07.008Z,1644
2019-03-25T11:22:07.487Z,1604
2019-03-25T11:23:08.280Z,1580
2019-03-25T11:24:08.785Z,1464
2019-03-25T11:25:10.283Z,1320
2019-03-25T11:26:09.299Z,1244
2019-03-25T11:27:10.102Z,1316
2019-03-25T11:28:13.187Z,1400
2019-03-25T11:29:11.540Z,1552
2019-03-25T11:30:12.866Z,1740
2019-03-25T11:31:15.364Z,1880
2019-03-25T11:32:15.321Z,1872
2019-03-25T11:33:16.083Z,1776
2019-03-25T11:34:16.715Z,1696
2019-03-25T11:35:16.214Z,1656
2019-03-25T11:36:17.534Z,1664
2019-03-25T11:37:18.574Z,1640
2019-03-25T11:38:19.114Z,1612
2019-03-25T11:39:20.425Z,1540
2019-03-25T11:40:22.886Z,1316
2019-03-25T11:41:23.709Z,1240
2019-03-25T11:42:22.910Z,1284
2019-03-25T11:43:23.037Z,1332
2019-03-25T11:44:23.714Z,1372
2019-03-25T11:45:24.582Z,1324
2019-03-25T11:46:25.631Z,1272
2019-03-25T11:47:26.314Z,1288
2019-03-25T11:48:27.029Z,1272
2019-03-25T11:49:27.816Z,1284
2019-03-25T11:50:28.653Z,1224
2019-03-25T11:51:30.023Z,1144
2019-03-25T11:52:30.948Z,988
2019-03-25T11:53:31.810Z,880
2019-03-25T11:54:35.315Z,856
2019-03-25T11:55:33.199Z,892
2019-03-25T11:56:33.699Z,924
2019-03-25T11:57:34.457Z,944
2019-03-25T11:58:35.299Z,984
2019-03-25T11:59:36.168Z,1016
2019-03-25T12:00:36.645Z,1012
2019-03-25T12:01:37.411Z,960
2019-03-25T12:02:38.162Z,992
2019-03-25T12:03:38.919Z,1088
2019-03-25T12:04:39.676Z,1152
2019-03-25T12:05:43.415Z,1168
2019-03-25T12:06:43.924Z,1168
2019-03-25T12:07:44.967Z,1096
2019-03-25T12:08:45.825Z,1052
2019-03-25T12:09:46.583Z,1052
2019-03-25T12:10:47.926Z,1024
2019-03-25T12:11:50.536Z,972
2019-03-25T12:12:49.501Z,900
2019-03-25T12:13:54.539Z,872
2019-03-25T12:14:04.019Z,868
2019-03-25T12:14:14.429Z,868
2019-03-25T12:14:22.977Z,860
2019-03-25T12:15:21.884Z,860
2019-03-25T12:16:23.309Z,884
2019-03-25T12:17:24.744Z,924
2019-03-25T12:18:25.886Z,948
2019-03-25T12:19:25.712Z,920
2019-03-25T12:20:26.493Z,896
2019-03-25T12:21:26.971Z,892
2019-03-25T12:22:28.415Z,892
2019-03-25T12:23:28.740Z,920
2019-03-25T12:24:29.541Z,956
2019-03-25T12:25:29.485Z,948
2019-03-25T12:26:30.239Z,936
2019-03-25T12:27:31.973Z,936
2019-03-25T12:28:36.828Z,936
2019-03-25T12:29:33.321Z,940
2019-03-25T12:30:33.808Z,920
2019-03-25T12:31:40.057Z,884
2019-03-25T12:31:49.169Z,880
2019-03-25T12:31:57.178Z,872
2019-03-25T12:33:05.653Z,856
2019-03-25T12:34:07.923Z,888
2019-03-25T12:35:07.751Z,936
2019-03-25T12:36:08.728Z,984
2019-03-25T12:37:11.699Z,1020
2019-03-25T12:38:11.462Z,1040
2019-03-25T12:39:11.750Z,1032
2019-03-25T12:40:12.510Z,1028
2019-03-25T12:41:13.631Z,1012
2019-03-25T12:42:14.109Z,992
2019-03-25T12:43:15.426Z,1012
2019-03-25T12:44:16.263Z,1060
2019-03-25T12:45:16.738Z,1108
2019-03-25T12:46:17.007Z,1172
2019-03-25T12:47:17.544Z,1284
2019-03-25T12:48:18.313Z,1440
2019-03-25T12:49:19.105Z,1540
2019-03-25T12:50:22.807Z,1556
2019-03-25T12:51:21.774Z,1512
2019-03-25T12:52:21.981Z,1420
2019-03-25T12:53:23.020Z,1372
2019-03-25T12:54:23.503Z,1336
2019-03-25T12:55:24.112Z,1388
2019-03-25T12:56:24.602Z,1560
2019-03-25T12:57:25.691Z,1948
2019-03-25T12:58:26.479Z,2140
2019-03-25T12:59:27.513Z,2360
2019-03-25T13:00:28.039Z,2468
2019-03-25T13:01:28.244Z,2500
2019-03-25T13:02:29.007Z,2508
2019-03-25T13:03:29.040Z,2516
2019-03-25T13:04:29.478Z,2492
2019-03-25T13:05:30.238Z,2504
2019-03-25T13:06:31.282Z,2560
2019-03-25T13:07:31.316Z,2632
2019-03-25T13:08:34.913Z,2764
2019-03-25T13:09:36.283Z,3032
2019-03-25T13:10:36.772Z,3292
2019-03-25T13:11:37.604Z,3532
2019-03-25T13:12:37.902Z,3528
2019-03-25T13:13:39.375Z,3348
2019-03-25T13:14:39.377Z,3096
2019-03-25T13:15:40.426Z,2824
2019-03-25T13:16:40.907Z,2496
2019-03-25T13:17:41.392Z,2176
2019-03-25T13:18:42.159Z,2032
2019-03-25T13:19:44.967Z,2052
2019-03-25T13:20:44.122Z,1932
2019-03-25T13:21:43.883Z,1940
2019-03-25T13:22:44.386Z,1860
2019-03-25T13:23:44.872Z,1644
2019-03-25T13:24:45.091Z,1524
2019-03-25T13:25:45.862Z,1452
2019-03-25T13:26:46.908Z,1460
2019-03-25T13:27:47.415Z,1524
2019-03-25T13:28:48.169Z,1524
2019-03-25T13:29:54.462Z,1552
2019-03-25T13:29:59.000Z,1552
2019-03-25T13:30:59.531Z,1520
2019-03-25T13:32:00.020Z,1420
2019-03-25T13:33:01.117Z,1416
2019-03-25T13:34:01.721Z,1420
2019-03-25T13:35:02.274Z,1368
2019-03-25T13:36:03.049Z,1336
2019-03-25T13:37:04.382Z,1364
2019-03-25T13:38:05.420Z,1500
2019-03-25T13:39:05.905Z,1708
2019-03-25T13:40:06.664Z,1928
2019-03-25T13:41:07.880Z,2200
2019-03-25T13:42:08.917Z,2448
2019-03-25T13:43:09.970Z,2612
2019-03-25T13:44:10.724Z,2724
2019-03-25T13:45:11.809Z,2852
2019-03-25T13:46:16.947Z,3140
2019-03-25T13:46:22.338Z,3172
2019-03-25T13:47:25.799Z,3412
2019-03-25T13:48:24.282Z,3440
2019-03-25T13:49:25.326Z,3448
2019-03-25T13:50:25.879Z,3528
2019-03-25T13:51:26.631Z,3664
2019-03-25T13:52:27.113Z,3944
2019-03-25T13:53:27.318Z,4292